Time;durP1;ratioP1;P1;durP2;ratioP2;P2;SDS_P1;SDS_P2;PMS_P1;PMS_P2;Temp;Humidity;BMP_temperature;BMP_pressure;BME280_temperature;BME280_humidity;BME280_pressure;Samples;Min_cycle;Max_cycle;Signal;HPM_P1;HPM_P2
2022/03/26 00:00:14;;;;;;;12.98;3.60;;;;;;;;;;5031778;28;20111;-43
2022/03/26 00:02:41;;;;;;;12.20;3.45;;;;;;;;;;5034670;28;20029;-44
2022/03/26 00:05:08;;;;;;;12.60;3.00;;;;;;;;;;5031919;28;20025;-44
2022/03/26 00:07:35;;;;;;;20.20;3.35;;;;;;;;;;5031957;28;20052;-44
2022/03/26 00:10:02;;;;;;;14.85;3.65;;;;;;;;;;5032841;28;20045;-44
2022/03/26 00:12:29;;;;;;;11.30;3.15;;;;;;;;;;5032545;28;20045;-44
2022/03/26 00:14:58;;;;;;;15.50;3.45;;;;;;;;;;5032620;28;20498;-44
2022/03/26 00:17:25;;;;;;;10.40;3.63;;;;;;;;;;5031937;28;20124;-44
2022/03/26 00:19:53;;;;;;;13.00;3.60;;;;;;;;;;5032957;28;20105;-45
2022/03/26 00:22:20;;;;;;;16.65;3.83;;;;;;;;;;5032518;28;20103;-44
2022/03/26 00:24:47;;;;;;;11.93;4.00;;;;;;;;;;5033020;28;20120;-42
2022/03/26 00:27:14;;;;;;;12.32;3.75;;;;;;;;;;5032763;28;20056;-45
2022/03/26 00:29:41;;;;;;;11.75;3.97;;;;;;;;;;5032526;28;20100;-43
2022/03/26 00:32:09;;;;;;;14.20;3.40;;;;;;;;;;5032662;28;20456;-42
2022/03/26 00:34:36;;;;;;;15.77;4.05;;;;;;;;;;5032755;28;20514;-42
2022/03/26 00:37:04;;;;;;;11.73;3.67;;;;;;;;;;5014133;28;20041;-42
2022/03/26 00:39:31;;;;;;;9.80;3.30;;;;;;;;;;5032731;28;20036;-42
2022/03/26 00:41:58;;;;;;;11.38;3.60;;;;;;;;;;5032111;28;20491;-43
2022/03/26 00:44:26;;;;;;;9.20;4.13;;;;;;;;;;5031789;28;20056;-44
2022/03/26 00:46:53;;;;;;;15.68;5.50;;;;;;;;;;5032437;28;20022;-43
2022/03/26 00:49:20;;;;;;;18.40;6.97;;;;;;;;;;5031880;28;20029;-42
2022/03/26 00:51:47;;;;;;;20.40;7.28;;;;;;;;;;5031917;28;20383;-42
2022/03/26 00:54:14;;;;;;;20.73;7.90;;;;;;;;;;5032228;28;20033;-43
2022/03/26 00:56:42;;;;;;;23.38;7.15;;;;;;;;;;5032103;28;20431;-43
2022/03/26 00:59:09;;;;;;;24.08;7.80;;;;;;;;;;5014065;28;20036;-43
2022/03/26 01:01:36;;;;;;;28.73;11.23;;;;;;;;;;5032111;28;20060;-43
2022/03/26 01:04:03;;;;;;;24.02;12.60;;;;;;;;;;5032136;28;20029;-45
2022/03/26 01:06:31;;;;;;;23.83;13.02;;;;;;;;;;5031762;28;20033;-43
2022/03/26 01:08:58;;;;;;;27.65;13.77;;;;;;;;;;5032142;28;20053;-43
2022/03/26 01:11:25;;;;;;;23.17;12.60;;;;;;;;;;5032041;28;20024;-45
2022/03/26 01:13:56;;;;;;;23.65;14.13;;;;;;;;;;5031842;28;20029;-42
2022/03/26 01:16:24;;;;;;;24.90;13.98;;;;;;;;;;5031988;28;20034;-43
2022/03/26 01:18:51;;;;;;;24.77;13.30;;;;;;;;;;5031898;28;20056;-43
2022/03/26 01:21:19;;;;;;;23.40;13.30;;;;;;;;;;5031631;28;20017;-43
2022/03/26 01:23:49;;;;;;;26.23;14.40;;;;;;;;;;5032072;28;20025;-42
2022/03/26 01:26:17;;;;;;;23.55;12.77;;;;;;;;;;5031752;28;20026;-42
2022/03/26 01:28:44;;;;;;;26.33;12.52;;;;;;;;;;5034637;28;20043;-43
2022/03/26 01:31:12;;;;;;;22.95;12.38;;;;;;;;;;5051570;28;20128;-42
2022/03/26 01:33:39;;;;;;;21.67;12.20;;;;;;;;;;5051703;28;20079;-41
2022/03/26 01:36:06;;;;;;;22.60;11.10;;;;;;;;;;5044623;28;20028;-46
2022/03/26 01:38:33;;;;;;;23.15;11.70;;;;;;;;;;5030936;28;20052;-46
2022/03/26 01:41:00;;;;;;;25.92;11.43;;;;;;;;;;5031542;28;20030;-46
2022/03/26 01:43:27;;;;;;;20.23;11.60;;;;;;;;;;5046499;28;20451;-46
2022/03/26 01:45:54;;;;;;;27.38;12.10;;;;;;;;;;5048961;28;20072;-47
2022/03/26 01:48:21;;;;;;;24.50;11.40;;;;;;;;;;5049529;28;20021;-46
2022/03/26 01:50:49;;;;;;;18.33;10.77;;;;;;;;;;5049040;28;20573;-44
2022/03/26 01:53:16;;;;;;;23.13;11.30;;;;;;;;;;5049737;28;20021;-44
2022/03/26 01:55:43;;;;;;;18.35;10.30;;;;;;;;;;5050196;28;20029;-44
2022/03/26 01:58:10;;;;;;;21.33;10.95;;;;;;;;;;5051739;28;20044;-46
2022/03/26 02:00:37;;;;;;;23.02;11.38;;;;;;;;;;5051736;28;20063;-47
2022/03/26 02:03:07;;;;;;;20.40;10.95;;;;;;;;;;5050598;28;20036;-44
2022/03/26 02:05:34;;;;;;;22.17;11.27;;;;;;;;;;5051544;28;20056;-44
2022/03/26 02:08:03;;;;;;;19.70;11.40;;;;;;;;;;5051794;28;20029;-44
2022/03/26 02:10:30;;;;;;;17.08;10.23;;;;;;;;;;5051801;28;20045;-46
2022/03/26 02:12:58;;;;;;;20.08;11.38;;;;;;;;;;5051641;28;20028;-45
2022/03/26 02:15:26;;;;;;;20.55;10.35;;;;;;;;;;5051360;28;20064;-45
2022/03/26 02:17:53;;;;;;;18.80;10.57;;;;;;;;;;5051363;28;20037;-46
2022/03/26 02:20:22;;;;;;;16.92;9.55;;;;;;;;;;5049214;28;20028;-45
2022/03/26 02:22:49;;;;;;;16.52;10.18;;;;;;;;;;5051004;28;20045;-44
2022/03/26 02:25:17;;;;;;;21.50;10.77;;;;;;;;;;5051106;28;20029;-45
2022/03/26 02:27:45;;;;;;;15.90;9.52;;;;;;;;;;5051134;28;20372;-46
2022/03/26 02:30:12;;;;;;;18.40;9.02;;;;;;;;;;5051317;28;20033;-44
2022/03/26 02:32:39;;;;;;;15.00;9.02;;;;;;;;;;5051563;28;20029;-45
2022/03/26 02:35:06;;;;;;;17.67;10.00;;;;;;;;;;5051626;28;20036;-45
2022/03/26 02:37:33;;;;;;;16.42;9.73;;;;;;;;;;5051425;28;20117;-44
2022/03/26 02:40:06;;;;;;;16.90;9.10;;;;;;;;;;5051435;28;20091;-45
2022/03/26 02:42:36;;;;;;;16.98;8.57;;;;;;;;;;5054903;28;20450;-44
2022/03/26 02:45:04;;;;;;;17.35;9.13;;;;;;;;;;5054799;28;20059;-44
2022/03/26 02:47:34;;;;;;;14.77;8.65;;;;;;;;;;5054171;28;20112;-44
2022/03/26 02:50:04;;;;;;;18.30;8.88;;;;;;;;;;5036900;28;20590;-46
2022/03/26 02:52:31;;;;;;;15.05;8.48;;;;;;;;;;5054694;28;20066;-45
2022/03/26 02:54:58;;;;;;;14.65;8.10;;;;;;;;;;5054825;28;20101;-44
2022/03/26 02:57:25;;;;;;;15.70;8.55;;;;;;;;;;5054659;28;20025;-45
2022/03/26 02:59:52;;;;;;;16.58;8.20;;;;;;;;;;5054612;28;20479;-44
2022/03/26 03:02:19;;;;;;;15.77;7.88;;;;;;;;;;5054514;28;20162;-45
2022/03/26 03:04:47;;;;;;;13.30;8.00;;;;;;;;;;5036552;28;20061;-45
2022/03/26 03:07:14;;;;;;;16.15;8.43;;;;;;;;;;5054605;28;20768;-44
2022/03/26 03:09:41;;;;;;;12.82;7.60;;;;;;;;;;5054527;28;20347;-45
2022/03/26 03:12:09;;;;;;;12.65;7.53;;;;;;;;;;5054193;28;20372;-45
2022/03/26 03:14:37;;;;;;;13.32;7.82;;;;;;;;;;5054457;28;20032;-46
2022/03/26 03:17:07;;;;;;;14.73;7.70;;;;;;;;;;5054234;28;20033;-44
2022/03/26 03:19:34;;;;;;;12.40;7.47;;;;;;;;;;5054317;28;20044;-46
2022/03/26 03:22:03;;;;;;;11.88;7.43;;;;;;;;;;5054189;28;20025;-44
2022/03/26 03:24:30;;;;;;;13.57;7.72;;;;;;;;;;5054244;28;20120;-46
2022/03/26 03:27:00;;;;;;;15.18;7.45;;;;;;;;;;5054170;28;20017;-44
2022/03/26 03:29:27;;;;;;;12.45;7.43;;;;;;;;;;5053777;28;20040;-45
2022/03/26 03:31:54;;;;;;;11.88;6.72;;;;;;;;;;5053895;28;20032;-44
2022/03/26 03:34:21;;;;;;;11.27;7.22;;;;;;;;;;5054019;28;20098;-44
2022/03/26 03:36:48;;;;;;;11.93;6.57;;;;;;;;;;5053973;28;20017;-44
2022/03/26 03:39:15;;;;;;;11.15;6.60;;;;;;;;;;5053819;28;20106;-45
2022/03/26 03:41:45;;;;;;;10.98;6.40;;;;;;;;;;5053827;28;20130;-46
2022/03/26 03:44:16;;;;;;;10.18;6.35;;;;;;;;;;5053341;28;20421;-45
2022/03/26 03:46:43;;;;;;;13.10;7.00;;;;;;;;;;5053884;28;20033;-45
2022/03/26 03:49:10;;;;;;;12.93;6.70;;;;;;;;;;5053839;28;20025;-44
2022/03/26 03:51:37;;;;;;;14.48;7.03;;;;;;;;;;5053336;28;20033;-45
2022/03/26 03:54:05;;;;;;;13.57;6.55;;;;;;;;;;5053542;28;20029;-44
2022/03/26 03:56:32;;;;;;;10.48;6.32;;;;;;;;;;5053661;28;20040;-45
2022/03/26 03:58:59;;;;;;;11.43;6.88;;;;;;;;;;5053592;28;20020;-44
2022/03/26 04:01:26;;;;;;;9.75;6.18;;;;;;;;;;5053582;28;20403;-45
2022/03/26 04:03:53;;;;;;;13.52;6.32;;;;;;;;;;5053622;28;20024;-46
2022/03/26 04:06:20;;;;;;;9.82;6.35;;;;;;;;;;5053446;28;20037;-45
2022/03/26 04:08:47;;;;;;;11.18;6.43;;;;;;;;;;5053363;28;20025;-45
2022/03/26 04:11:14;;;;;;;9.73;6.13;;;;;;;;;;5053540;28;20029;-44
2022/03/26 04:13:41;;;;;;;9.95;6.25;;;;;;;;;;5053391;28;20479;-44
2022/03/26 04:16:08;;;;;;;9.95;6.30;;;;;;;;;;5053592;28;20033;-45
2022/03/26 04:18:35;;;;;;;10.10;6.07;;;;;;;;;;5053410;28;20057;-45
2022/03/26 04:21:02;;;;;;;9.93;6.10;;;;;;;;;;5053242;28;20079;-46
2022/03/26 04:23:29;;;;;;;8.98;5.63;;;;;;;;;;5053284;28;20017;-44
2022/03/26 04:25:56;;;;;;;9.30;5.68;;;;;;;;;;5053201;28;20021;-44
2022/03/26 04:28:23;;;;;;;9.45;6.28;;;;;;;;;;5053275;28;20033;-45
2022/03/26 04:30:50;;;;;;;9.90;5.70;;;;;;;;;;5053051;28;20025;-47
2022/03/26 04:33:17;;;;;;;9.23;5.70;;;;;;;;;;5035527;28;20166;-45
2022/03/26 04:35:44;;;;;;;7.95;5.88;;;;;;;;;;5053208;28;20542;-44
2022/03/26 04:38:11;;;;;;;9.90;5.97;;;;;;;;;;5053024;28;20029;-46
2022/03/26 04:40:38;;;;;;;8.07;5.65;;;;;;;;;;5053026;28;20032;-46
2022/03/26 04:43:05;;;;;;;8.60;5.15;;;;;;;;;;5052881;28;20096;-44
2022/03/26 04:45:33;;;;;;;6.85;4.85;;;;;;;;;;5052762;28;20053;-46
2022/03/26 04:48:00;;;;;;;7.82;5.32;;;;;;;;;;5052833;28;20474;-44
2022/03/26 04:50:27;;;;;;;9.02;5.80;;;;;;;;;;5052873;28;20052;-46
2022/03/26 04:52:54;;;;;;;13.48;5.35;;;;;;;;;;5052612;28;20486;-44
2022/03/26 04:55:21;;;;;;;9.38;5.60;;;;;;;;;;5052745;28;20470;-44
2022/03/26 04:57:49;;;;;;;7.03;4.53;;;;;;;;;;5052705;28;20044;-45
2022/03/26 05:00:17;;;;;;;8.55;5.10;;;;;;;;;;5052692;28;20029;-44
2022/03/26 05:02:44;;;;;;;8.45;5.28;;;;;;;;;;5052065;28;20040;-44
2022/03/26 05:05:12;;;;;;;6.97;4.68;;;;;;;;;;5052168;28;20079;-44
2022/03/26 05:07:48;;;;;;;7.75;5.07;;;;;;;;;;5034666;28;20035;-46
2022/03/26 05:10:23;;;;;;;6.57;4.28;;;;;;;;;;5052596;28;20021;-44
2022/03/26 05:12:51;;;;;;;7.85;4.70;;;;;;;;;;5052450;28;20029;-44
2022/03/26 05:15:18;;;;;;;8.13;4.72;;;;;;;;;;5051893;28;20045;-46
2022/03/26 05:17:45;;;;;;;5.50;4.38;;;;;;;;;;5052265;28;20041;-46
2022/03/26 05:20:13;;;;;;;8.20;4.53;;;;;;;;;;5052335;28;20036;-47
2022/03/26 05:22:45;;;;;;;7.95;4.72;;;;;;;;;;5052425;28;20029;-46
2022/03/26 05:25:12;;;;;;;7.80;5.00;;;;;;;;;;5052359;28;20033;-44
2022/03/26 05:27:43;;;;;;;7.55;4.47;;;;;;;;;;5052372;28;20525;-46
2022/03/26 05:30:10;;;;;;;8.63;5.10;;;;;;;;;;5052244;28;20041;-45
2022/03/26 05:32:37;;;;;;;6.10;4.50;;;;;;;;;;5052129;28;20032;-48
2022/03/26 05:35:06;;;;;;;8.70;4.28;;;;;;;;;;5034293;28;20364;-45
2022/03/26 05:37:33;;;;;;;7.22;4.30;;;;;;;;;;5052223;28;20041;-46
2022/03/26 05:40:00;;;;;;;5.85;3.97;;;;;;;;;;5052185;28;20483;-46
2022/03/26 05:42:27;;;;;;;7.43;4.40;;;;;;;;;;5052232;28;20024;-45
2022/03/26 05:44:54;;;;;;;5.93;4.43;;;;;;;;;;5052122;28;20139;-45
2022/03/26 05:47:23;;;;;;;6.90;4.57;;;;;;;;;;5052272;28;20119;-45
2022/03/26 05:49:51;;;;;;;6.22;3.90;;;;;;;;;;5052064;28;20482;-45
2022/03/26 05:52:17;;;;;;;6.57;4.10;;;;;;;;;;5052028;28;20056;-46
2022/03/26 05:54:44;;;;;;;9.18;4.65;;;;;;;;;;5052066;28;20021;-45
2022/03/26 05:57:12;;;;;;;6.45;4.18;;;;;;;;;;5034018;28;20070;-45
2022/03/26 05:59:40;;;;;;;5.82;3.90;;;;;;;;;;5051909;28;20044;-45
2022/03/26 06:02:10;;;;;;;4.82;3.80;;;;;;;;;;5051963;28;20094;-45
2022/03/26 06:04:37;;;;;;;7.40;4.03;;;;;;;;;;5051935;28;20036;-45
2022/03/26 06:07:04;;;;;;;7.18;4.43;;;;;;;;;;5052148;28;20047;-45
2022/03/26 06:09:31;;;;;;;4.55;3.65;;;;;;;;;;5051909;28;20158;-45
2022/03/26 06:11:59;;;;;;;5.55;4.43;;;;;;;;;;5051837;28;20025;-47
2022/03/26 06:14:25;;;;;;;5.68;3.63;;;;;;;;;;5051814;28;20052;-45
2022/03/26 06:16:53;;;;;;;4.72;3.78;;;;;;;;;;5054221;28;20024;-45
2022/03/26 06:19:20;;;;;;;6.22;4.03;;;;;;;;;;5055767;28;20046;-45
2022/03/26 06:21:47;;;;;;;5.57;3.72;;;;;;;;;;5055641;28;20031;-48
2022/03/26 06:24:14;;;;;;;5.95;3.67;;;;;;;;;;5055713;28;20079;-46
2022/03/26 06:26:43;;;;;;;6.28;3.90;;;;;;;;;;5055523;28;20036;-45
2022/03/26 06:29:12;;;;;;;5.63;3.38;;;;;;;;;;5055394;28;20402;-45
2022/03/26 06:31:39;;;;;;;5.32;3.72;;;;;;;;;;5055383;28;20487;-46
2022/03/26 06:34:06;;;;;;;4.93;3.80;;;;;;;;;;5055423;28;20410;-45
2022/03/26 06:36:36;;;;;;;6.07;3.95;;;;;;;;;;5055341;28;20139;-45
2022/03/26 06:39:06;;;;;;;5.40;3.50;;;;;;;;;;5055283;28;20036;-45
2022/03/26 06:41:35;;;;;;;6.55;3.85;;;;;;;;;;5055135;28;20037;-46
2022/03/26 06:44:02;;;;;;;5.55;3.88;;;;;;;;;;5055147;28;20036;-45
2022/03/26 06:46:29;;;;;;;5.25;3.42;;;;;;;;;;5055183;28;20023;-45
2022/03/26 06:48:56;;;;;;;5.55;3.65;;;;;;;;;;5055059;28;20032;-45
2022/03/26 06:51:23;;;;;;;7.03;4.30;;;;;;;;;;5055040;28;20021;-46
2022/03/26 06:53:50;;;;;;;6.40;4.00;;;;;;;;;;5055146;28;20475;-46
2022/03/26 06:56:17;;;;;;;5.22;3.42;;;;;;;;;;5055068;28;20411;-44
2022/03/26 06:58:44;;;;;;;6.38;3.38;;;;;;;;;;5054874;28;20040;-45
2022/03/26 07:01:12;;;;;;;6.20;3.35;;;;;;;;;;5054936;28;20516;-45
2022/03/26 07:03:39;;;;;;;4.80;3.40;;;;;;;;;;5054991;28;20028;-45
2022/03/26 07:06:06;;;;;;;5.57;3.40;;;;;;;;;;5054923;28;20025;-46
2022/03/26 07:08:33;;;;;;;6.05;3.45;;;;;;;;;;5187655;22;20053;-50
2022/03/26 07:11:00;;;;;;;6.43;3.30;;;;;;;;;;5035008;28;20422;-48
2022/03/26 07:13:27;;;;;;;4.75;2.88;;;;;;;;;;5034814;28;20131;-52
2022/03/26 07:15:55;;;;;;;4.03;3.08;;;;;;;;;;5034905;28;20021;-50
2022/03/26 07:18:22;;;;;;;5.55;3.05;;;;;;;;;;5034704;28;20022;-50
2022/03/26 07:20:49;;;;;;;4.68;3.20;;;;;;;;;;5034730;28;20049;-50
2022/03/26 07:23:16;;;;;;;4.88;3.25;;;;;;;;;;5034679;28;20021;-47
2022/03/26 07:25:43;;;;;;;4.65;3.00;;;;;;;;;;5034690;28;20033;-48
2022/03/26 07:28:10;;;;;;;6.35;3.38;;;;;;;;;;5033769;28;20075;-47
2022/03/26 07:30:37;;;;;;;4.10;2.92;;;;;;;;;;5034592;28;20422;-49
2022/03/26 07:33:04;;;;;;;6.82;3.33;;;;;;;;;;5034491;28;20238;-46
2022/03/26 07:35:31;;;;;;;5.18;3.15;;;;;;;;;;5034436;28;20104;-46
2022/03/26 07:37:58;;;;;;;5.55;3.22;;;;;;;;;;5034271;28;20033;-47
2022/03/26 07:40:26;;;;;;;4.38;3.20;;;;;;;;;;5034387;28;20045;-49
2022/03/26 07:42:53;;;;;;;7.13;3.00;;;;;;;;;;5034301;28;20096;-48
2022/03/26 07:45:20;;;;;;;4.75;3.17;;;;;;;;;;5034281;28;20033;-48
2022/03/26 07:47:47;;;;;;;5.40;3.20;;;;;;;;;;5034190;28;20044;-46
2022/03/26 07:50:14;;;;;;;5.57;3.33;;;;;;;;;;5034196;28;20026;-46
2022/03/26 07:52:41;;;;;;;7.20;2.95;;;;;;;;;;5034157;28;20029;-45
2022/03/26 07:55:08;;;;;;;3.70;2.75;;;;;;;;;;5034097;28;20025;-46
2022/03/26 07:57:35;;;;;;;4.95;2.65;;;;;;;;;;5015769;28;20391;-46
2022/03/26 08:00:02;;;;;;;4.07;2.95;;;;;;;;;;5047415;28;20459;-47
2022/03/26 08:02:29;;;;;;;4.55;2.90;;;;;;;;;;5053831;28;20021;-47
2022/03/26 08:04:56;;;;;;;3.97;2.50;;;;;;;;;;5053945;28;20021;-48
2022/03/26 08:07:23;;;;;;;3.30;2.72;;;;;;;;;;5053504;28;20041;-46
2022/03/26 08:09:51;;;;;;;4.00;2.40;;;;;;;;;;5053550;28;20029;-46
2022/03/26 08:12:18;;;;;;;3.95;2.75;;;;;;;;;;5053814;28;20056;-47
2022/03/26 08:14:45;;;;;;;5.38;2.97;;;;;;;;;;5053679;28;20033;-46
2022/03/26 08:17:12;;;;;;;5.60;2.90;;;;;;;;;;5053393;28;20032;-47
2022/03/26 08:19:39;;;;;;;3.80;2.70;;;;;;;;;;5053443;28;20037;-45
2022/03/26 08:22:06;;;;;;;4.63;3.05;;;;;;;;;;5053484;28;20028;-45
2022/03/26 08:24:33;;;;;;;4.47;2.78;;;;;;;;;;5035423;28;20439;-46
2022/03/26 08:27:00;;;;;;;2.72;2.40;;;;;;;;;;5053284;28;20025;-48
2022/03/26 08:29:28;;;;;;;3.83;2.80;;;;;;;;;;5053311;28;20033;-46
2022/03/26 08:31:55;;;;;;;3.30;2.33;;;;;;;;;;5053187;28;20061;-45
2022/03/26 08:34:22;;;;;;;3.50;2.67;;;;;;;;;;5053269;28;20020;-45
2022/03/26 08:36:49;;;;;;;3.45;2.47;;;;;;;;;;5053132;28;20029;-47
2022/03/26 08:39:16;;;;;;;3.70;2.50;;;;;;;;;;5052328;28;20119;-46
2022/03/26 08:41:45;;;;;;;3.35;2.30;;;;;;;;;;5053154;28;20036;-45
2022/03/26 08:44:12;;;;;;;3.45;2.20;;;;;;;;;;5052953;28;20528;-46
2022/03/26 08:46:39;;;;;;;2.97;2.20;;;;;;;;;;5052923;28;20021;-46
2022/03/26 08:49:06;;;;;;;5.13;2.65;;;;;;;;;;5033851;28;20498;-47
2022/03/26 08:51:33;;;;;;;4.18;2.50;;;;;;;;;;5052958;28;20028;-45
2022/03/26 08:54:01;;;;;;;3.47;2.22;;;;;;;;;;5052915;28;20017;-45
2022/03/26 08:56:28;;;;;;;5.95;2.60;;;;;;;;;;5052585;28;20039;-49
2022/03/26 08:58:55;;;;;;;3.58;2.47;;;;;;;;;;5052785;28;20029;-45
2022/03/26 09:01:22;;;;;;;4.13;2.35;;;;;;;;;;5052872;28;20037;-47
2022/03/26 09:03:50;;;;;;;3.58;2.22;;;;;;;;;;5052822;28;20063;-46
2022/03/26 09:06:17;;;;;;;3.60;2.28;;;;;;;;;;5052611;28;20087;-45
2022/03/26 09:08:45;;;;;;;3.40;2.10;;;;;;;;;;5052460;28;20124;-46
2022/03/26 09:11:12;;;;;;;2.70;1.88;;;;;;;;;;5052512;28;20029;-45
2022/03/26 09:13:40;;;;;;;3.25;2.10;;;;;;;;;;5052699;28;20079;-46
2022/03/26 09:16:07;;;;;;;2.72;2.00;;;;;;;;;;5052589;28;20036;-46
2022/03/26 09:18:34;;;;;;;3.08;2.40;;;;;;;;;;5052409;28;20108;-45
2022/03/26 09:21:01;;;;;;;4.25;2.53;;;;;;;;;;5052518;28;20032;-46
2022/03/26 09:23:28;;;;;;;3.63;2.30;;;;;;;;;;5052290;28;20493;-49
2022/03/26 09:25:55;;;;;;;2.65;2.05;;;;;;;;;;5052465;28;20032;-45
2022/03/26 09:28:23;;;;;;;2.45;1.85;;;;;;;;;;5052256;28;20502;-46
2022/03/26 09:30:50;;;;;;;3.42;1.95;;;;;;;;;;5052449;28;20049;-46
2022/03/26 09:33:17;;;;;;;3.63;2.30;;;;;;;;;;5052450;28;20028;-47
2022/03/26 09:35:44;;;;;;;3.55;2.28;;;;;;;;;;5052385;28;20452;-46
2022/03/26 09:38:11;;;;;;;3.03;2.28;;;;;;;;;;5052132;28;20478;-45
2022/03/26 09:40:38;;;;;;;4.05;2.50;;;;;;;;;;5052336;28;20079;-48
2022/03/26 09:43:05;;;;;;;2.38;1.65;;;;;;;;;;5052349;28;20033;-45
2022/03/26 09:45:33;;;;;;;4.72;2.40;;;;;;;;;;5052283;28;20075;-46
2022/03/26 09:48:00;;;;;;;2.88;1.70;;;;;;;;;;5052168;28;20541;-47
2022/03/26 09:50:27;;;;;;;2.72;1.75;;;;;;;;;;5054011;28;20511;-45
2022/03/26 09:52:54;;;;;;;2.78;1.83;;;;;;;;;;5056304;28;20032;-45
2022/03/26 09:55:21;;;;;;;2.15;1.77;;;;;;;;;;5056267;28;20483;-45
2022/03/26 09:57:49;;;;;;;2.95;2.13;;;;;;;;;;5055867;28;20045;-48
2022/03/26 10:00:16;;;;;;;2.25;1.92;;;;;;;;;;5056197;28;20052;-49
2022/03/26 10:02:43;;;;;;;2.35;1.73;;;;;;;;;;5056178;28;20059;-45
2022/03/26 10:05:12;;;;;;;2.72;1.65;;;;;;;;;;5056096;28;20113;-46
2022/03/26 10:07:40;;;;;;;4.38;1.85;;;;;;;;;;5055636;28;20124;-46
2022/03/26 10:10:07;;;;;;;3.45;2.22;;;;;;;;;;5044471;28;20041;-45
2022/03/26 10:12:34;;;;;;;2.75;1.70;;;;;;;;;;5034168;28;20115;-45
2022/03/26 10:15:06;;;;;;;6.68;2.10;;;;;;;;;;5034300;28;20021;-53
2022/03/26 10:17:34;;;;;;;3.50;2.00;;;;;;;;;;5050065;28;20060;-49
2022/03/26 10:20:02;;;;;;;7.32;1.90;;;;;;;;;;5053811;28;20439;-60
2022/03/26 10:22:32;;;;;;;4.78;2.20;;;;;;;;;;5054803;28;20080;-61
2022/03/26 10:25:10;;;;;;;2.95;2.22;;;;;;;;;;5054942;28;20036;-47
2022/03/26 10:27:38;;;;;;;4.28;1.80;;;;;;;;;;5054751;28;20505;-55
2022/03/26 10:30:06;;;;;;;4.28;2.10;;;;;;;;;;5055061;28;20386;-49
2022/03/26 10:32:44;;;;;;;3.85;1.70;;;;;;;;;;5052369;28;20505;-48
2022/03/26 10:35:12;;;;;;;3.85;2.22;;;;;;;;;;5054490;28;20037;-56
2022/03/26 10:38:01;;;;;;;5.20;2.35;;;;;;;;;;5054869;28;20044;-49
2022/03/26 10:40:33;;;;;;;3.35;2.03;;;;;;;;;;5054498;28;20553;-47
2022/03/26 10:43:01;;;;;;;4.50;2.35;;;;;;;;;;5036974;28;20075;-48
2022/03/26 10:45:29;;;;;;;3.33;1.90;;;;;;;;;;5054019;28;20092;-45
2022/03/26 10:48:00;;;;;;;3.03;1.88;;;;;;;;;;5054550;28;20043;-55
2022/03/26 10:50:28;;;;;;;3.67;2.05;;;;;;;;;;5054615;28;20028;-46
2022/03/26 10:52:55;;;;;;;4.10;1.65;;;;;;;;;;5054487;28;20441;-47
2022/03/26 10:55:23;;;;;;;5.30;1.85;;;;;;;;;;5053913;28;20078;-45
2022/03/26 10:57:50;;;;;;;3.67;1.75;;;;;;;;;;5054473;28;20037;-47
2022/03/26 11:00:18;;;;;;;4.47;1.63;;;;;;;;;;5054171;28;20032;-46
2022/03/26 11:02:46;;;;;;;2.22;1.67;;;;;;;;;;5053720;28;20044;-52
2022/03/26 11:05:13;;;;;;;4.35;1.50;;;;;;;;;;5053436;28;20025;-50
2022/03/26 11:07:43;;;;;;;4.50;1.77;;;;;;;;;;5044544;28;20046;-46
2022/03/26 11:10:14;;;;;;;3.42;1.88;;;;;;;;;;5033905;28;20061;-46
2022/03/26 11:12:45;;;;;;;2.83;1.80;;;;;;;;;;5016513;28;20124;-59
2022/03/26 11:15:15;;;;;;;4.03;1.60;;;;;;;;;;5034521;28;20026;-47
2022/03/26 11:17:45;;;;;;;5.13;2.28;;;;;;;;;;5033282;28;20033;-46
2022/03/26 11:20:30;;;;;;;3.70;1.77;;;;;;;;;;5034246;28;20188;-47
2022/03/26 11:23:00;;;;;;;2.97;1.50;;;;;;;;;;5034181;28;20058;-54
2022/03/26 11:25:45;;;;;;;2.88;1.75;;;;;;;;;;5033946;28;20061;-60
2022/03/26 11:28:25;;;;;;;3.90;1.65;;;;;;;;;;5033151;28;20380;-55
2022/03/26 11:30:59;;;;;;;5.95;1.67;;;;;;;;;;5034047;28;20475;-58
2022/03/26 11:33:25;;;;;;;4.07;1.55;;;;;;;;;;5033692;28;20056;-52
2022/03/26 11:35:57;;;;;;;3.22;1.85;;;;;;;;;;5033657;28;20029;-53
2022/03/26 11:38:28;;;;;;;4.10;1.47;;;;;;;;;;5009641;28;20395;-50
2022/03/26 11:40:56;;;;;;;4.35;1.75;;;;;;;;;;5021053;28;20037;-49
2022/03/26 11:43:49;;;;;;;4.97;1.63;;;;;;;;;;5014183;28;20503;-50
2022/03/26 11:52:15;;;;;;;3.42;1.73;;;;;;;;;;5034095;28;20048;-44
2022/03/26 11:54:43;;;;;;;4.38;1.55;;;;;;;;;;5033610;28;20144;-45
2022/03/26 11:57:15;;;;;;;2.95;1.75;;;;;;;;;;5033518;28;20025;-45
2022/03/26 11:59:42;;;;;;;2.28;1.35;;;;;;;;;;5032506;28;20080;-45
2022/03/26 12:02:20;;;;;;;2.83;1.52;;;;;;;;;;5033586;28;20032;-46
2022/03/26 12:04:51;;;;;;;2.97;1.58;;;;;;;;;;5015733;28;20116;-48
2022/03/26 12:07:18;;;;;;;3.60;1.70;;;;;;;;;;5033144;28;20095;-59
2022/03/26 12:09:45;;;;;;;3.10;1.77;;;;;;;;;;5032309;28;20033;-46
2022/03/26 12:12:15;;;;;;;2.75;1.48;;;;;;;;;;5033153;28;20033;-49
2022/03/26 12:15:00;;;;;;;4.32;1.75;;;;;;;;;;5033207;28;20071;-46
2022/03/26 12:17:45;;;;;;;3.45;1.73;;;;;;;;;;5033009;28;20037;-50
2022/03/26 12:20:19;;;;;;;4.63;1.80;;;;;;;;;;5032226;28;20030;-43
2022/03/26 12:22:49;;;;;;;2.45;1.42;;;;;;;;;;5033137;28;20475;-46
2022/03/26 12:25:19;;;;;;;4.60;1.50;;;;;;;;;;5033105;28;20036;-43
2022/03/26 12:27:46;;;;;;;3.47;1.70;;;;;;;;;;5032780;28;20100;-43
2022/03/26 12:30:14;;;;;;;2.78;1.80;;;;;;;;;;5032169;28;20026;-46
2022/03/26 12:32:42;;;;;;;2.78;1.75;;;;;;;;;;5032670;28;20037;-43
2022/03/26 12:35:10;;;;;;;2.42;1.45;;;;;;;;;;5032815;28;20496;-46
2022/03/26 12:37:38;;;;;;;1.90;1.33;;;;;;;;;;5032607;28;20034;-45
2022/03/26 12:40:09;;;;;;;1.85;1.40;;;;;;;;;;5032460;28;20099;-44
2022/03/26 12:42:36;;;;;;;3.17;1.50;;;;;;;;;;5031994;28;20029;-44
2022/03/26 12:45:13;;;;;;;2.05;1.40;;;;;;;;;;5032644;28;20029;-48
2022/03/26 12:47:44;;;;;;;3.72;1.58;;;;;;;;;;5026237;28;20030;-47
2022/03/26 12:50:11;;;;;;;2.95;1.55;;;;;;;;;;5031933;28;20032;-52
2022/03/26 12:52:39;;;;;;;2.35;1.60;;;;;;;;;;5014190;28;20040;-46
2022/03/26 12:55:06;;;;;;;3.72;2.10;;;;;;;;;;5032657;28;20049;-48
2022/03/26 13:00:24;;;;;;;2.38;1.60;;;;;;;;;;5032253;28;20091;-48
2022/03/26 13:03:23;;;;;;;2.30;1.85;;;;;;;;;;5031651;28;20087;-47
2022/03/26 13:05:50;;;;;;;6.15;1.50;;;;;;;;;;4978801;28;20084;-44
2022/03/26 13:08:17;;;;;;;3.22;1.85;;;;;;;;;;5031977;28;20526;-44
2022/03/26 13:10:45;;;;;;;2.33;1.60;;;;;;;;;;5032049;28;20048;-45
2022/03/26 13:13:12;;;;;;;5.03;1.63;;;;;;;;;;5031363;28;20072;-47
2022/03/26 13:15:40;;;;;;;2.17;1.80;;;;;;;;;;5032194;28;20033;-50
2022/03/26 13:18:07;;;;;;;4.38;1.77;;;;;;;;;;5031221;28;20033;-52
2022/03/26 13:20:40;;;;;;;3.10;1.80;;;;;;;;;;5012102;28;20104;-57
2022/03/26 13:23:08;;;;;;;2.75;1.40;;;;;;;;;;5012544;28;20100;-50
2022/03/26 13:25:36;;;;;;;3.88;1.90;;;;;;;;;;5011174;28;20228;-57
2022/03/26 13:28:19;;;;;;;4.93;2.20;;;;;;;;;;5012026;28;20101;-48
2022/03/26 13:30:47;;;;;;;6.90;1.95;;;;;;;;;;5012352;28;20112;-48
2022/03/26 13:33:19;;;;;;;4.38;2.05;;;;;;;;;;5011761;28;20328;-49
2022/03/26 13:35:49;;;;;;;3.33;2.10;;;;;;;;;;5011209;28;20034;-50
2022/03/26 13:38:16;;;;;;;5.15;1.55;;;;;;;;;;5012176;28;20049;-48
2022/03/26 13:40:43;;;;;;;2.80;1.83;;;;;;;;;;5012130;28;20036;-46
2022/03/26 13:43:11;;;;;;;3.70;1.65;;;;;;;;;;5012259;28;20022;-46
2022/03/26 13:45:42;;;;;;;3.40;1.85;;;;;;;;;;5009063;28;20502;-51
2022/03/26 13:48:11;;;;;;;5.22;2.35;;;;;;;;;;5010934;28;20113;-55
2022/03/26 13:50:39;;;;;;;4.15;2.10;;;;;;;;;;5011171;28;20112;-49
2022/03/26 13:53:16;;;;;;;5.15;1.75;;;;;;;;;;5025105;28;20033;-49
2022/03/26 13:55:48;;;;;;;4.28;1.80;;;;;;;;;;5030851;28;20644;-51
2022/03/26 13:58:18;;;;;;;6.65;2.33;;;;;;;;;;4998094;28;20044;-49
2022/03/26 14:00:45;;;;;;;5.95;2.13;;;;;;;;;;5011373;28;20511;-52
2022/03/26 14:03:12;;;;;;;5.20;1.73;;;;;;;;;;5011702;28;20038;-49
2022/03/26 14:06:00;;;;;;;4.57;1.38;;;;;;;;;;5027198;28;20040;-51
2022/03/26 14:08:31;;;;;;;6.30;1.60;;;;;;;;;;5027514;28;20053;-48
2022/03/26 14:11:06;;;;;;;6.43;2.10;;;;;;;;;;5048857;28;20033;-50
2022/03/26 14:13:34;;;;;;;4.80;1.90;;;;;;;;;;5050983;28;20408;-47
2022/03/26 14:16:04;;;;;;;6.97;1.77;;;;;;;;;;5051146;28;20040;-52
2022/03/26 14:18:31;;;;;;;6.95;1.83;;;;;;;;;;5031332;28;20084;-48
2022/03/26 14:20:58;;;;;;;9.60;1.70;;;;;;;;;;5031078;28;20021;-50
2022/03/26 14:23:25;;;;;;;9.30;2.10;;;;;;;;;;5031408;28;20060;-50
2022/03/26 14:25:53;;;;;;;10.57;2.42;;;;;;;;;;5013403;28;20490;-52
2022/03/26 14:28:20;;;;;;;15.07;2.50;;;;;;;;;;5030925;28;20033;-51
2022/03/26 14:30:47;;;;;;;22.42;3.03;;;;;;;;;;5029766;28;20108;-51
2022/03/26 14:33:15;;;;;;;11.63;2.70;;;;;;;;;;5030834;28;20025;-51
2022/03/26 14:35:47;;;;;;;13.55;2.63;;;;;;;;;;5030684;28;20034;-52
2022/03/26 14:38:15;;;;;;;11.25;2.35;;;;;;;;;;5033313;28;20033;-49
2022/03/26 14:40:43;;;;;;;11.07;2.20;;;;;;;;;;5034142;28;20037;-47
2022/03/26 14:43:10;;;;;;;11.02;2.40;;;;;;;;;;5034564;28;20100;-47
2022/03/26 14:45:37;;;;;;;10.65;2.50;;;;;;;;;;5034444;28;20022;-49
2022/03/26 14:48:07;;;;;;;13.95;3.08;;;;;;;;;;5034536;28;20056;-49
2022/03/26 14:50:34;;;;;;;17.05;2.90;;;;;;;;;;5035787;28;20033;-48
2022/03/26 14:53:01;;;;;;;11.38;2.67;;;;;;;;;;5054538;28;20025;-48